sensor_id;sensor_type;location;lat;lon;timestamp;P1;durP1;ratioP1;P2;durP2;ratioP2
5961;SDS011;3007;50.770;0.250;2023-06-10T00:01:22;18.08;;;9.32;;
5961;SDS011;3007;50.770;0.250;2023-06-10T00:03:49;18.80;;;9.15;;
5961;SDS011;3007;50.770;0.250;2023-06-10T00:06:16;22.55;;;9.70;;
5961;SDS011;3007;50.770;0.250;2023-06-10T00:08:45;24.30;;;9.80;;
5961;SDS011;3007;50.770;0.250;2023-06-10T00:11:12;19.73;;;9.93;;
5961;SDS011;3007;50.770;0.250;2023-06-10T00:13:39;19.27;;;10.25;;
5961;SDS011;3007;50.770;0.250;2023-06-10T00:16:06;23.42;;;10.50;;
5961;SDS011;3007;50.770;0.250;2023-06-10T00:18:33;20.58;;;9.90;;
5961;SDS011;3007;50.770;0.250;2023-06-10T00:21:02;16.70;;;8.98;;
5961;SDS011;3007;50.770;0.250;2023-06-10T00:23:30;25.38;;;10.15;;
5961;SDS011;3007;50.770;0.250;2023-06-10T00:25:59;22.63;;;9.97;;
5961;SDS011;3007;50.770;0.250;2023-06-10T00:28:25;20.30;;;9.52;;
5961;SDS011;3007;50.770;0.250;2023-06-10T00:30:52;20.75;;;10.32;;
5961;SDS011;3007;50.770;0.250;2023-06-10T00:33:19;21.25;;;9.40;;
5961;SDS011;3007;50.770;0.250;2023-06-10T00:35:46;13.85;;;7.78;;
5961;SDS011;3007;50.770;0.250;2023-06-10T00:38:13;19.13;;;9.73;;
5961;SDS011;3007;50.770;0.250;2023-06-10T00:40:40;26.63;;;10.73;;
5961;SDS011;3007;50.770;0.250;2023-06-10T00:43:09;20.00;;;10.13;;
5961;SDS011;3007;50.770;0.250;2023-06-10T00:45:36;19.58;;;9.20;;
5961;SDS011;3007;50.770;0.250;2023-06-10T00:48:05;26.58;;;9.65;;
5961;SDS011;3007;50.770;0.250;2023-06-10T00:50:33;16.92;;;9.25;;
5961;SDS011;3007;50.770;0.250;2023-06-10T00:53:00;17.75;;;9.32;;
5961;SDS011;3007;50.770;0.250;2023-06-10T00:55:27;15.20;;;9.30;;
5961;SDS011;3007;50.770;0.250;2023-06-10T00:57:54;23.00;;;9.88;;
5961;SDS011;3007;50.770;0.250;2023-06-10T01:00:23;23.60;;;9.80;;
5961;SDS011;3007;50.770;0.250;2023-06-10T01:02:49;20.08;;;9.15;;
5961;SDS011;3007;50.770;0.250;2023-06-10T01:05:17;16.38;;;8.63;;
5961;SDS011;3007;50.770;0.250;2023-06-10T01:07:47;19.35;;;9.02;;
5961;SDS011;3007;50.770;0.250;2023-06-10T01:10:19;21.90;;;9.80;;
5961;SDS011;3007;50.770;0.250;2023-06-10T01:12:52;15.23;;;8.52;;
5961;SDS011;3007;50.770;0.250;2023-06-10T01:15:25;20.88;;;9.55;;
5961;SDS011;3007;50.770;0.250;2023-06-10T01:17:53;14.43;;;8.65;;
5961;SDS011;3007;50.770;0.250;2023-06-10T01:20:22;17.00;;;8.20;;
5961;SDS011;3007;50.770;0.250;2023-06-10T01:22:53;17.60;;;8.88;;
5961;SDS011;3007;50.770;0.250;2023-06-10T01:25:20;19.40;;;9.87;;
5961;SDS011;3007;50.770;0.250;2023-06-10T01:27:52;20.60;;;9.70;;
5961;SDS011;3007;50.770;0.250;2023-06-10T01:30:22;17.98;;;9.50;;
5961;SDS011;3007;50.770;0.250;2023-06-10T01:32:55;14.27;;;9.15;;
5961;SDS011;3007;50.770;0.250;2023-06-10T01:35:26;25.60;;;9.60;;
5961;SDS011;3007;50.770;0.250;2023-06-10T01:37:56;15.75;;;8.43;;
5961;SDS011;3007;50.770;0.250;2023-06-10T01:40:26;23.60;;;9.95;;
5961;SDS011;3007;50.770;0.250;2023-06-10T01:42:54;21.43;;;9.87;;
5961;SDS011;3007;50.770;0.250;2023-06-10T01:45:21;16.55;;;8.77;;
5961;SDS011;3007;50.770;0.250;2023-06-10T01:47:48;20.93;;;8.90;;
5961;SDS011;3007;50.770;0.250;2023-06-10T01:50:15;26.55;;;9.68;;
5961;SDS011;3007;50.770;0.250;2023-06-10T01:52:42;24.60;;;9.38;;
5961;SDS011;3007;50.770;0.250;2023-06-10T01:55:10;18.70;;;8.32;;
5961;SDS011;3007;50.770;0.250;2023-06-10T01:57:37;15.35;;;8.52;;
5961;SDS011;3007;50.770;0.250;2023-06-10T02:00:04;18.35;;;8.70;;
5961;SDS011;3007;50.770;0.250;2023-06-10T02:02:32;16.60;;;9.00;;
5961;SDS011;3007;50.770;0.250;2023-06-10T02:04:59;23.53;;;8.57;;
5961;SDS011;3007;50.770;0.250;2023-06-10T02:07:26;22.63;;;9.13;;
5961;SDS011;3007;50.770;0.250;2023-06-10T02:09:53;21.35;;;9.70;;
5961;SDS011;3007;50.770;0.250;2023-06-10T02:12:21;19.80;;;9.23;;
5961;SDS011;3007;50.770;0.250;2023-06-10T02:14:48;19.33;;;8.70;;
5961;SDS011;3007;50.770;0.250;2023-06-10T02:17:15;19.33;;;8.90;;
5961;SDS011;3007;50.770;0.250;2023-06-10T02:19:42;18.38;;;9.38;;
5961;SDS011;3007;50.770;0.250;2023-06-10T02:22:09;20.77;;;9.93;;
5961;SDS011;3007;50.770;0.250;2023-06-10T02:24:36;15.10;;;9.05;;
5961;SDS011;3007;50.770;0.250;2023-06-10T02:27:04;22.95;;;9.05;;
5961;SDS011;3007;50.770;0.250;2023-06-10T02:29:34;19.35;;;9.05;;
5961;SDS011;3007;50.770;0.250;2023-06-10T02:32:01;20.35;;;8.77;;
5961;SDS011;3007;50.770;0.250;2023-06-10T02:34:29;16.27;;;7.93;;
5961;SDS011;3007;50.770;0.250;2023-06-10T02:36:56;21.33;;;9.10;;
5961;SDS011;3007;50.770;0.250;2023-06-10T02:39:23;20.05;;;9.43;;
5961;SDS011;3007;50.770;0.250;2023-06-10T02:41:49;14.23;;;8.40;;
5961;SDS011;3007;50.770;0.250;2023-06-10T02:44:17;17.00;;;9.98;;
5961;SDS011;3007;50.770;0.250;2023-06-10T02:46:45;23.02;;;9.45;;
5961;SDS011;3007;50.770;0.250;2023-06-10T02:49:12;17.98;;;8.13;;
5961;SDS011;3007;50.770;0.250;2023-06-10T02:51:39;12.60;;;8.67;;
5961;SDS011;3007;50.770;0.250;2023-06-10T02:54:06;25.23;;;9.63;;
5961;SDS011;3007;50.770;0.250;2023-06-10T02:56:33;20.33;;;9.43;;
5961;SDS011;3007;50.770;0.250;2023-06-10T02:59:00;16.80;;;9.10;;
5961;SDS011;3007;50.770;0.250;2023-06-10T03:01:27;21.13;;;9.70;;
5961;SDS011;3007;50.770;0.250;2023-06-10T03:03:58;22.30;;;9.80;;
5961;SDS011;3007;50.770;0.250;2023-06-10T03:06:24;19.27;;;9.13;;
5961;SDS011;3007;50.770;0.250;2023-06-10T03:08:51;22.45;;;9.93;;
5961;SDS011;3007;50.770;0.250;2023-06-10T03:11:18;19.37;;;9.10;;
5961;SDS011;3007;50.770;0.250;2023-06-10T03:13:45;14.63;;;8.20;;
5961;SDS011;3007;50.770;0.250;2023-06-10T03:16:12;19.07;;;9.53;;
5961;SDS011;3007;50.770;0.250;2023-06-10T03:18:39;19.20;;;8.50;;
5961;SDS011;3007;50.770;0.250;2023-06-10T03:21:07;17.80;;;8.13;;
5961;SDS011;3007;50.770;0.250;2023-06-10T03:23:34;24.37;;;9.80;;
5961;SDS011;3007;50.770;0.250;2023-06-10T03:26:02;16.77;;;9.37;;
5961;SDS011;3007;50.770;0.250;2023-06-10T03:28:29;17.47;;;9.17;;
5961;SDS011;3007;50.770;0.250;2023-06-10T03:30:56;16.60;;;8.67;;
5961;SDS011;3007;50.770;0.250;2023-06-10T03:33:23;20.03;;;9.10;;
5961;SDS011;3007;50.770;0.250;2023-06-10T03:35:51;17.30;;;8.33;;
5961;SDS011;3007;50.770;0.250;2023-06-10T03:38:19;19.40;;;10.23;;
5961;SDS011;3007;50.770;0.250;2023-06-10T03:40:46;21.47;;;9.10;;
5961;SDS011;3007;50.770;0.250;2023-06-10T03:43:13;17.33;;;9.30;;
5961;SDS011;3007;50.770;0.250;2023-06-10T03:45:40;19.08;;;9.57;;
5961;SDS011;3007;50.770;0.250;2023-06-10T03:48:07;19.05;;;9.43;;
5961;SDS011;3007;50.770;0.250;2023-06-10T03:50:34;18.13;;;9.82;;
5961;SDS011;3007;50.770;0.250;2023-06-10T03:53:01;19.63;;;9.67;;
5961;SDS011;3007;50.770;0.250;2023-06-10T03:55:30;25.17;;;9.63;;
5961;SDS011;3007;50.770;0.250;2023-06-10T03:57:57;21.70;;;9.65;;
5961;SDS011;3007;50.770;0.250;2023-06-10T04:00:24;18.35;;;9.55;;
5961;SDS011;3007;50.770;0.250;2023-06-10T04:02:51;21.08;;;9.70;;
5961;SDS011;3007;50.770;0.250;2023-06-10T04:05:18;18.60;;;9.97;;
5961;SDS011;3007;50.770;0.250;2023-06-10T04:07:46;20.63;;;8.93;;
5961;SDS011;3007;50.770;0.250;2023-06-10T04:10:13;17.20;;;9.35;;
5961;SDS011;3007;50.770;0.250;2023-06-10T04:12:41;16.38;;;8.90;;
5961;SDS011;3007;50.770;0.250;2023-06-10T04:15:09;14.43;;;9.05;;
5961;SDS011;3007;50.770;0.250;2023-06-10T04:17:37;16.40;;;9.00;;
5961;SDS011;3007;50.770;0.250;2023-06-10T04:20:04;23.40;;;9.60;;
5961;SDS011;3007;50.770;0.250;2023-06-10T04:22:34;16.25;;;9.00;;
5961;SDS011;3007;50.770;0.250;2023-06-10T04:25:01;15.60;;;8.35;;
5961;SDS011;3007;50.770;0.250;2023-06-10T04:27:28;18.48;;;8.82;;
5961;SDS011;3007;50.770;0.250;2023-06-10T04:29:57;18.85;;;9.27;;
5961;SDS011;3007;50.770;0.250;2023-06-10T04:32:23;15.45;;;8.27;;
5961;SDS011;3007;50.770;0.250;2023-06-10T04:34:51;16.30;;;9.70;;
5961;SDS011;3007;50.770;0.250;2023-06-10T04:37:18;17.58;;;8.52;;
5961;SDS011;3007;50.770;0.250;2023-06-10T04:39:45;15.05;;;7.70;;
5961;SDS011;3007;50.770;0.250;2023-06-10T04:42:12;16.88;;;8.25;;
5961;SDS011;3007;50.770;0.250;2023-06-10T04:44:39;21.50;;;8.48;;
5961;SDS011;3007;50.770;0.250;2023-06-10T04:47:08;14.70;;;8.20;;
5961;SDS011;3007;50.770;0.250;2023-06-10T04:49:34;19.55;;;8.15;;
5961;SDS011;3007;50.770;0.250;2023-06-10T04:52:01;18.45;;;8.80;;
5961;SDS011;3007;50.770;0.250;2023-06-10T04:54:29;20.98;;;8.65;;
5961;SDS011;3007;50.770;0.250;2023-06-10T04:56:57;17.20;;;7.78;;
5961;SDS011;3007;50.770;0.250;2023-06-10T04:59:25;16.52;;;7.85;;
5961;SDS011;3007;50.770;0.250;2023-06-10T05:01:52;13.55;;;7.63;;
5961;SDS011;3007;50.770;0.250;2023-06-10T05:04:21;14.82;;;7.80;;
5961;SDS011;3007;50.770;0.250;2023-06-10T05:06:48;16.30;;;8.30;;
5961;SDS011;3007;50.770;0.250;2023-06-10T05:09:14;13.73;;;7.70;;
5961;SDS011;3007;50.770;0.250;2023-06-10T05:11:41;15.38;;;7.50;;
5961;SDS011;3007;50.770;0.250;2023-06-10T05:14:09;14.15;;;7.57;;
5961;SDS011;3007;50.770;0.250;2023-06-10T05:16:36;15.07;;;7.68;;
5961;SDS011;3007;50.770;0.250;2023-06-10T05:19:03;13.93;;;8.13;;
5961;SDS011;3007;50.770;0.250;2023-06-10T05:21:31;12.73;;;7.95;;
5961;SDS011;3007;50.770;0.250;2023-06-10T05:23:58;16.60;;;7.93;;
5961;SDS011;3007;50.770;0.250;2023-06-10T05:26:25;16.17;;;8.15;;
5961;SDS011;3007;50.770;0.250;2023-06-10T05:28:54;14.68;;;8.10;;
5961;SDS011;3007;50.770;0.250;2023-06-10T05:31:21;15.77;;;8.10;;
5961;SDS011;3007;50.770;0.250;2023-06-10T05:33:48;13.27;;;7.80;;
5961;SDS011;3007;50.770;0.250;2023-06-10T05:36:15;11.70;;;7.57;;
5961;SDS011;3007;50.770;0.250;2023-06-10T05:38:43;12.77;;;6.82;;
5961;SDS011;3007;50.770;0.250;2023-06-10T05:41:10;12.88;;;7.68;;
5961;SDS011;3007;50.770;0.250;2023-06-10T05:43:37;16.27;;;7.78;;
5961;SDS011;3007;50.770;0.250;2023-06-10T05:46:04;17.63;;;8.13;;
5961;SDS011;3007;50.770;0.250;2023-06-10T05:48:30;12.70;;;7.00;;
5961;SDS011;3007;50.770;0.250;2023-06-10T05:50:57;15.35;;;7.72;;
5961;SDS011;3007;50.770;0.250;2023-06-10T05:53:24;13.23;;;7.47;;
5961;SDS011;3007;50.770;0.250;2023-06-10T05:55:52;12.95;;;7.40;;
5961;SDS011;3007;50.770;0.250;2023-06-10T05:58:22;13.10;;;7.10;;
5961;SDS011;3007;50.770;0.250;2023-06-10T06:00:50;12.13;;;6.97;;
5961;SDS011;3007;50.770;0.250;2023-06-10T06:03:17;13.15;;;7.18;;
5961;SDS011;3007;50.770;0.250;2023-06-10T06:05:44;12.98;;;7.18;;
5961;SDS011;3007;50.770;0.250;2023-06-10T06:08:11;10.93;;;7.20;;
5961;SDS011;3007;50.770;0.250;2023-06-10T06:10:42;10.82;;;7.13;;
5961;SDS011;3007;50.770;0.250;2023-06-10T06:13:10;20.58;;;7.22;;
5961;SDS011;3007;50.770;0.250;2023-06-10T06:15:37;13.95;;;7.93;;
5961;SDS011;3007;50.770;0.250;2023-06-10T06:18:04;12.77;;;6.72;;
5961;SDS011;3007;50.770;0.250;2023-06-10T06:20:31;10.52;;;7.15;;
5961;SDS011;3007;50.770;0.250;2023-06-10T06:22:58;14.52;;;7.40;;
5961;SDS011;3007;50.770;0.250;2023-06-10T06:25:25;12.18;;;6.97;;
5961;SDS011;3007;50.770;0.250;2023-06-10T06:27:51;10.00;;;7.03;;
5961;SDS011;3007;50.770;0.250;2023-06-10T06:30:20;10.45;;;7.00;;
5961;SDS011;3007;50.770;0.250;2023-06-10T06:32:47;10.65;;;6.80;;
5961;SDS011;3007;50.770;0.250;2023-06-10T06:35:14;11.85;;;7.15;;
5961;SDS011;3007;50.770;0.250;2023-06-10T06:37:41;11.02;;;6.53;;
5961;SDS011;3007;50.770;0.250;2023-06-10T06:40:08;14.40;;;7.22;;
5961;SDS011;3007;50.770;0.250;2023-06-10T06:42:35;9.43;;;6.60;;
5961;SDS011;3007;50.770;0.250;2023-06-10T06:45:02;10.48;;;7.28;;
5961;SDS011;3007;50.770;0.250;2023-06-10T06:47:31;13.35;;;6.57;;
5961;SDS011;3007;50.770;0.250;2023-06-10T06:49:58;12.43;;;6.88;;
5961;SDS011;3007;50.770;0.250;2023-06-10T06:52:24;11.07;;;6.43;;
5961;SDS011;3007;50.770;0.250;2023-06-10T06:54:51;9.82;;;6.55;;
5961;SDS011;3007;50.770;0.250;2023-06-10T06:57:18;9.30;;;6.60;;
5961;SDS011;3007;50.770;0.250;2023-06-10T06:59:45;11.10;;;6.88;;
5961;SDS011;3007;50.770;0.250;2023-06-10T07:02:12;12.52;;;6.85;;
5961;SDS011;3007;50.770;0.250;2023-06-10T07:04:40;10.45;;;6.75;;
5961;SDS011;3007;50.770;0.250;2023-06-10T07:07:07;9.05;;;6.38;;
5961;SDS011;3007;50.770;0.250;2023-06-10T07:09:34;14.55;;;6.97;;
5961;SDS011;3007;50.770;0.250;2023-06-10T07:12:02;10.05;;;6.57;;
5961;SDS011;3007;50.770;0.250;2023-06-10T07:14:30;9.25;;;6.13;;
5961;SDS011;3007;50.770;0.250;2023-06-10T07:16:57;11.45;;;6.13;;
5961;SDS011;3007;50.770;0.250;2023-06-10T07:19:24;12.18;;;5.88;;
5961;SDS011;3007;50.770;0.250;2023-06-10T07:21:52;8.07;;;5.97;;
5961;SDS011;3007;50.770;0.250;2023-06-10T07:24:19;8.68;;;6.03;;
5961;SDS011;3007;50.770;0.250;2023-06-10T07:26:46;9.32;;;6.00;;
5961;SDS011;3007;50.770;0.250;2023-06-10T07:29:13;9.50;;;6.00;;
5961;SDS011;3007;50.770;0.250;2023-06-10T07:31:40;6.03;;;5.38;;
5961;SDS011;3007;50.770;0.250;2023-06-10T07:34:07;5.90;;;5.30;;
5961;SDS011;3007;50.770;0.250;2023-06-10T07:36:34;9.43;;;5.68;;
5961;SDS011;3007;50.770;0.250;2023-06-10T07:39:02;8.43;;;5.40;;
5961;SDS011;3007;50.770;0.250;2023-06-10T07:41:30;6.38;;;5.35;;
5961;SDS011;3007;50.770;0.250;2023-06-10T07:43:57;6.95;;;5.72;;
5961;SDS011;3007;50.770;0.250;2023-06-10T07:46:24;7.00;;;6.25;;
5961;SDS011;3007;50.770;0.250;2023-06-10T07:48:52;6.03;;;5.30;;
5961;SDS011;3007;50.770;0.250;2023-06-10T07:51:20;6.97;;;6.28;;
5961;SDS011;3007;50.770;0.250;2023-06-10T07:53:47;8.60;;;6.25;;
5961;SDS011;3007;50.770;0.250;2023-06-10T07:56:15;6.63;;;5.65;;
5961;SDS011;3007;50.770;0.250;2023-06-10T07:58:42;6.63;;;6.10;;
5961;SDS011;3007;50.770;0.250;2023-06-10T08:01:09;6.85;;;6.25;;
5961;SDS011;3007;50.770;0.250;2023-06-10T08:03:36;9.65;;;6.45;;
5961;SDS011;3007;50.770;0.250;2023-06-10T08:06:03;6.88;;;6.28;;
5961;SDS011;3007;50.770;0.250;2023-06-10T08:08:30;13.13;;;6.68;;
5961;SDS011;3007;50.770;0.250;2023-06-10T08:10:57;6.97;;;6.28;;
5961;SDS011;3007;50.770;0.250;2023-06-10T08:13:25;7.28;;;6.03;;
5961;SDS011;3007;50.770;0.250;2023-06-10T08:15:52;8.88;;;6.45;;
5961;SDS011;3007;50.770;0.250;2023-06-10T08:18:20;9.95;;;6.60;;
5961;SDS011;3007;50.770;0.250;2023-06-10T08:20:47;7.03;;;6.20;;
5961;SDS011;3007;50.770;0.250;2023-06-10T08:23:14;7.07;;;6.38;;
5961;SDS011;3007;50.770;0.250;2023-06-10T08:25:41;8.23;;;6.15;;
5961;SDS011;3007;50.770;0.250;2023-06-10T08:28:08;7.57;;;5.70;;
5961;SDS011;3007;50.770;0.250;2023-06-10T08:30:36;7.38;;;5.88;;
5961;SDS011;3007;50.770;0.250;2023-06-10T08:33:03;6.93;;;6.32;;
5961;SDS011;3007;50.770;0.250;2023-06-10T08:35:30;8.40;;;5.93;;
5961;SDS011;3007;50.770;0.250;2023-06-10T08:37:57;7.43;;;6.13;;
5961;SDS011;3007;50.770;0.250;2023-06-10T08:40:24;7.82;;;5.88;;
5961;SDS011;3007;50.770;0.250;2023-06-10T08:42:53;7.60;;;6.00;;
5961;SDS011;3007;50.770;0.250;2023-06-10T08:45:29;6.32;;;5.72;;
5961;SDS011;3007;50.770;0.250;2023-06-10T08:47:58;9.75;;;6.35;;
5961;SDS011;3007;50.770;0.250;2023-06-10T08:50:26;6.45;;;5.85;;
5961;SDS011;3007;50.770;0.250;2023-06-10T08:52:56;8.02;;;6.80;;
5961;SDS011;3007;50.770;0.250;2023-06-10T08:55:26;7.20;;;6.50;;
5961;SDS011;3007;50.770;0.250;2023-06-10T08:57:56;7.53;;;6.70;;
5961;SDS011;3007;50.770;0.250;2023-06-10T09:00:25;9.48;;;7.00;;
5961;SDS011;3007;50.770;0.250;2023-06-10T09:02:53;11.43;;;6.78;;
5961;SDS011;3007;50.770;0.250;2023-06-10T09:05:22;7.82;;;7.10;;
5961;SDS011;3007;50.770;0.250;2023-06-10T09:07:50;7.80;;;7.10;;
5961;SDS011;3007;50.770;0.250;2023-06-10T09:10:19;7.97;;;7.05;;
5961;SDS011;3007;50.770;0.250;2023-06-10T09:12:46;11.18;;;7.47;;
5961;SDS011;3007;50.770;0.250;2023-06-10T09:15:12;9.25;;;7.35;;
5961;SDS011;3007;50.770;0.250;2023-06-10T09:17:42;9.32;;;8.05;;
5961;SDS011;3007;50.770;0.250;2023-06-10T09:20:10;13.23;;;7.50;;
5961;SDS011;3007;50.770;0.250;2023-06-10T09:22:39;11.95;;;7.47;;
5961;SDS011;3007;50.770;0.250;2023-06-10T09:25:07;9.95;;;8.52;;
5961;SDS011;3007;50.770;0.250;2023-06-10T09:27:43;9.05;;;7.53;;
5961;SDS011;3007;50.770;0.250;2023-06-10T09:30:22;10.13;;;8.07;;
5961;SDS011;3007;50.770;0.250;2023-06-10T09:32:51;8.68;;;7.63;;
5961;SDS011;3007;50.770;0.250;2023-06-10T09:35:19;8.68;;;7.78;;
5961;SDS011;3007;50.770;0.250;2023-06-10T09:37:48;8.68;;;7.88;;
5961;SDS011;3007;50.770;0.250;2023-06-10T09:40:18;8.90;;;7.68;;
5961;SDS011;3007;50.770;0.250;2023-06-10T09:42:44;10.45;;;8.60;;
5961;SDS011;3007;50.770;0.250;2023-06-10T09:45:14;12.43;;;8.57;;
5961;SDS011;3007;50.770;0.250;2023-06-10T09:47:41;8.00;;;7.30;;
5961;SDS011;3007;50.770;0.250;2023-06-10T09:50:08;7.90;;;6.93;;
5961;SDS011;3007;50.770;0.250;2023-06-10T09:52:36;7.45;;;6.75;;
5961;SDS011;3007;50.770;0.250;2023-06-10T09:55:07;8.40;;;7.60;;
5961;SDS011;3007;50.770;0.250;2023-06-10T09:57:35;9.82;;;7.75;;
5961;SDS011;3007;50.770;0.250;2023-06-10T10:00:04;8.57;;;7.68;;
5961;SDS011;3007;50.770;0.250;2023-06-10T10:02:32;8.73;;;7.38;;
5961;SDS011;3007;50.770;0.250;2023-06-10T10:05:10;7.60;;;6.90;;
5961;SDS011;3007;50.770;0.250;2023-06-10T10:07:39;9.10;;;8.10;;
5961;SDS011;3007;50.770;0.250;2023-06-10T10:10:08;9.57;;;7.88;;
5961;SDS011;3007;50.770;0.250;2023-06-10T10:12:36;9.35;;;8.43;;
5961;SDS011;3007;50.770;0.250;2023-06-10T10:15:05;9.60;;;7.88;;
5961;SDS011;3007;50.770;0.250;2023-06-10T10:17:34;8.65;;;7.32;;
5961;SDS011;3007;50.770;0.250;2023-06-10T10:20:04;8.25;;;7.32;;
5961;SDS011;3007;50.770;0.250;2023-06-10T10:22:35;9.05;;;7.90;;
5961;SDS011;3007;50.770;0.250;2023-06-10T10:25:05;8.73;;;7.25;;
5961;SDS011;3007;50.770;0.250;2023-06-10T10:27:40;9.00;;;7.68;;
5961;SDS011;3007;50.770;0.250;2023-06-10T10:30:13;8.18;;;7.30;;
5961;SDS011;3007;50.770;0.250;2023-06-10T10:32:43;9.40;;;8.60;;
5961;SDS011;3007;50.770;0.250;2023-06-10T10:35:22;8.07;;;7.28;;
5961;SDS011;3007;50.770;0.250;2023-06-10T10:37:51;7.10;;;6.38;;
5961;SDS011;3007;50.770;0.250;2023-06-10T10:40:20;8.13;;;7.40;;
5961;SDS011;3007;50.770;0.250;2023-06-10T10:42:48;8.50;;;7.60;;
5961;SDS011;3007;50.770;0.250;2023-06-10T10:45:16;8.38;;;7.55;;
5961;SDS011;3007;50.770;0.250;2023-06-10T10:47:43;10.23;;;8.48;;
5961;SDS011;3007;50.770;0.250;2023-06-10T10:50:15;8.70;;;7.78;;
5961;SDS011;3007;50.770;0.250;2023-06-10T10:52:48;8.45;;;7.68;;
5961;SDS011;3007;50.770;0.250;2023-06-10T10:55:21;8.15;;;6.88;;
5961;SDS011;3007;50.770;0.250;2023-06-10T10:57:55;9.38;;;7.55;;
5961;SDS011;3007;50.770;0.250;2023-06-10T11:00:30;7.57;;;6.93;;
5961;SDS011;3007;50.770;0.250;2023-06-10T11:02:58;8.65;;;7.75;;
5961;SDS011;3007;50.770;0.250;2023-06-10T11:05:35;7.47;;;6.78;;
5961;SDS011;3007;50.770;0.250;2023-06-10T11:08:04;9.07;;;7.25;;
5961;SDS011;3007;50.770;0.250;2023-06-10T11:10:34;7.90;;;6.53;;
5961;SDS011;3007;50.770;0.250;2023-06-10T11:13:05;7.75;;;7.00;;
5961;SDS011;3007;50.770;0.250;2023-06-10T11:15:37;8.55;;;7.75;;
5961;SDS011;3007;50.770;0.250;2023-06-10T11:18:09;9.80;;;7.55;;
5961;SDS011;3007;50.770;0.250;2023-06-10T11:23:38;9.23;;;7.63;;
5961;SDS011;3007;50.770;0.250;2023-06-10T11:26:14;7.30;;;6.60;;
5961;SDS011;3007;50.770;0.250;2023-06-10T11:31:28;9.15;;;7.63;;
5961;SDS011;3007;50.770;0.250;2023-06-10T11:33:57;8.35;;;7.57;;
5961;SDS011;3007;50.770;0.250;2023-06-10T11:36:25;8.20;;;7.40;;
5961;SDS011;3007;50.770;0.250;2023-06-10T11:38:53;8.70;;;7.80;;
5961;SDS011;3007;50.770;0.250;2023-06-10T11:41:24;8.27;;;7.47;;
5961;SDS011;3007;50.770;0.250;2023-06-10T11:43:52;7.60;;;6.65;;
5961;SDS011;3007;50.770;0.250;2023-06-10T11:46:21;8.30;;;7.53;;
5961;SDS011;3007;50.770;0.250;2023-06-10T11:48:51;10.57;;;8.43;;
5961;SDS011;3007;50.770;0.250;2023-06-10T11:51:18;8.38;;;7.57;;
5961;SDS011;3007;50.770;0.250;2023-06-10T11:53:46;10.85;;;7.22;;
5961;SDS011;3007;50.770;0.250;2023-06-10T11:56:13;8.50;;;7.63;;
5961;SDS011;3007;50.770;0.250;2023-06-10T11:58:51;9.38;;;8.48;;
5961;SDS011;3007;50.770;0.250;2023-06-10T12:01:20;9.77;;;8.77;;
5961;SDS011;3007;50.770;0.250;2023-06-10T12:03:47;10.73;;;9.70;;
5961;SDS011;3007;50.770;0.250;2023-06-10T12:06:22;9.70;;;8.43;;
5961;SDS011;3007;50.770;0.250;2023-06-10T12:08:49;12.70;;;9.65;;
5961;SDS011;3007;50.770;0.250;2023-06-10T12:11:16;10.93;;;8.68;;
5961;SDS011;3007;50.770;0.250;2023-06-10T12:13:46;9.52;;;8.30;;
5961;SDS011;3007;50.770;0.250;2023-06-10T12:16:14;9.38;;;8.35;;
5961;SDS011;3007;50.770;0.250;2023-06-10T12:18:43;9.30;;;8.25;;
5961;SDS011;3007;50.770;0.250;2023-06-10T12:21:20;8.73;;;7.93;;
5961;SDS011;3007;50.770;0.250;2023-06-10T12:24:00;8.32;;;7.20;;
5961;SDS011;3007;50.770;0.250;2023-06-10T12:26:39;9.00;;;8.00;;
5961;SDS011;3007;50.770;0.250;2023-06-10T12:29:18;8.35;;;7.40;;
5961;SDS011;3007;50.770;0.250;2023-06-10T12:32:00;8.20;;;7.50;;
5961;SDS011;3007;50.770;0.250;2023-06-10T12:34:37;8.27;;;7.47;;
5961;SDS011;3007;50.770;0.250;2023-06-10T12:37:05;7.68;;;6.97;;
5961;SDS011;3007;50.770;0.250;2023-06-10T12:39:38;8.43;;;6.97;;
5961;SDS011;3007;50.770;0.250;2023-06-10T12:42:06;8.77;;;6.95;;
5961;SDS011;3007;50.770;0.250;2023-06-10T12:44:38;7.78;;;6.72;;
5961;SDS011;3007;50.770;0.250;2023-06-10T12:47:08;7.18;;;6.47;;
5961;SDS011;3007;50.770;0.250;2023-06-10T12:49:37;10.98;;;8.18;;
5961;SDS011;3007;50.770;0.250;2023-06-10T12:52:05;8.07;;;7.28;;
5961;SDS011;3007;50.770;0.250;2023-06-10T12:54:32;8.73;;;7.80;;
5961;SDS011;3007;50.770;0.250;2023-06-10T12:57:00;10.18;;;8.00;;
5961;SDS011;3007;50.770;0.250;2023-06-10T12:59:27;9.95;;;8.40;;
5961;SDS011;3007;50.770;0.250;2023-06-10T13:01:55;10.68;;;8.90;;
5961;SDS011;3007;50.770;0.250;2023-06-10T13:04:22;9.88;;;8.88;;
5961;SDS011;3007;50.770;0.250;2023-06-10T13:06:49;11.68;;;10.20;;
5961;SDS011;3007;50.770;0.250;2023-06-10T13:09:16;11.00;;;9.82;;
5961;SDS011;3007;50.770;0.250;2023-06-10T13:11:43;11.70;;;9.40;;
5961;SDS011;3007;50.770;0.250;2023-06-10T13:14:10;11.57;;;8.68;;
5961;SDS011;3007;50.770;0.250;2023-06-10T13:16:37;10.32;;;9.23;;
5961;SDS011;3007;50.770;0.250;2023-06-10T13:19:06;10.50;;;9.40;;
5961;SDS011;3007;50.770;0.250;2023-06-10T13:21:33;10.43;;;9.43;;
5961;SDS011;3007;50.770;0.250;2023-06-10T13:24:00;10.60;;;9.25;;
5961;SDS011;3007;50.770;0.250;2023-06-10T13:26:27;9.98;;;9.07;;
5961;SDS011;3007;50.770;0.250;2023-06-10T13:28:54;10.50;;;9.50;;
5961;SDS011;3007;50.770;0.250;2023-06-10T13:31:21;13.82;;;9.73;;
5961;SDS011;3007;50.770;0.250;2023-06-10T13:33:48;12.32;;;10.98;;
5961;SDS011;3007;50.770;0.250;2023-06-10T13:36:16;14.50;;;11.20;;
5961;SDS011;3007;50.770;0.250;2023-06-10T13:38:43;11.93;;;10.73;;
5961;SDS011;3007;50.770;0.250;2023-06-10T13:41:10;12.70;;;10.20;;
5961;SDS011;3007;50.770;0.250;2023-06-10T13:43:37;11.80;;;9.10;;
5961;SDS011;3007;50.770;0.250;2023-06-10T13:46:04;11.75;;;9.23;;
5961;SDS011;3007;50.770;0.250;2023-06-10T13:48:31;10.23;;;9.23;;
5961;SDS011;3007;50.770;0.250;2023-06-10T13:50:58;12.80;;;11.45;;
5961;SDS011;3007;50.770;0.250;2023-06-10T13:53:27;14.48;;;12.93;;
5961;SDS011;3007;50.770;0.250;2023-06-10T13:55:53;12.52;;;11.32;;
5961;SDS011;3007;50.770;0.250;2023-06-10T13:58:20;15.23;;;13.65;;
5961;SDS011;3007;50.770;0.250;2023-06-10T14:00:47;16.23;;;14.63;;
5961;SDS011;3007;50.770;0.250;2023-06-10T14:03:14;19.50;;;15.27;;
5961;SDS011;3007;50.770;0.250;2023-06-10T14:05:41;16.45;;;13.80;;
5961;SDS011;3007;50.770;0.250;2023-06-10T14:08:08;18.70;;;16.88;;
5961;SDS011;3007;50.770;0.250;2023-06-10T14:10:36;18.25;;;16.55;;
5961;SDS011;3007;50.770;0.250;2023-06-10T14:13:03;18.98;;;16.48;;
5961;SDS011;3007;50.770;0.250;2023-06-10T14:15:30;16.75;;;15.07;;
5961;SDS011;3007;50.770;0.250;2023-06-10T14:17:57;20.50;;;17.00;;
5961;SDS011;3007;50.770;0.250;2023-06-10T14:20:24;18.42;;;16.65;;
5961;SDS011;3007;50.770;0.250;2023-06-10T14:22:51;19.20;;;16.85;;
5961;SDS011;3007;50.770;0.250;2023-06-10T14:25:18;17.23;;;15.65;;
5961;SDS011;3007;50.770;0.250;2023-06-10T14:27:47;22.98;;;17.75;;
5961;SDS011;3007;50.770;0.250;2023-06-10T14:30:14;17.92;;;16.25;;
5961;SDS011;3007;50.770;0.250;2023-06-10T14:32:41;20.90;;;17.35;;
5961;SDS011;3007;50.770;0.250;2023-06-10T14:35:08;17.45;;;15.70;;
5961;SDS011;3007;50.770;0.250;2023-06-10T14:37:35;20.02;;;17.95;;
5961;SDS011;3007;50.770;0.250;2023-06-10T14:40:02;18.00;;;16.02;;
5961;SDS011;3007;50.770;0.250;2023-06-10T14:42:30;22.52;;;20.13;;
5961;SDS011;3007;50.770;0.250;2023-06-10T14:44:59;21.08;;;18.98;;
5961;SDS011;3007;50.770;0.250;2023-06-10T14:47:26;20.27;;;17.42;;
5961;SDS011;3007;50.770;0.250;2023-06-10T14:49:52;21.23;;;19.02;;
5961;SDS011;3007;50.770;0.250;2023-06-10T14:52:19;27.85;;;19.23;;
5961;SDS011;3007;50.770;0.250;2023-06-10T14:54:46;21.38;;;18.15;;
5961;SDS011;3007;50.770;0.250;2023-06-10T14:57:13;22.85;;;18.52;;
5961;SDS011;3007;50.770;0.250;2023-06-10T14:59:40;20.83;;;17.75;;
5961;SDS011;3007;50.770;0.250;2023-06-10T15:02:08;19.55;;;17.58;;
5961;SDS011;3007;50.770;0.250;2023-06-10T15:04:35;22.73;;;18.05;;
5961;SDS011;3007;50.770;0.250;2023-06-10T15:07:02;23.73;;;15.60;;
5961;SDS011;3007;50.770;0.250;2023-06-10T15:09:29;16.75;;;15.15;;
5961;SDS011;3007;50.770;0.250;2023-06-10T15:11:57;17.83;;;13.90;;
5961;SDS011;3007;50.770;0.250;2023-06-10T15:14:24;19.73;;;15.63;;
5961;SDS011;3007;50.770;0.250;2023-06-10T15:16:51;14.23;;;12.82;;